sensor_id;sensor_type;location;lat;lon;timestamp;P1;durP1;ratioP1;P2;durP2;ratioP2
12367;SDS011;6248;49.812;6.620;2023-02-14T00:00:49;7.13;;;5.00;;
12367;SDS011;6248;49.812;6.620;2023-02-14T00:03:16;6.50;;;5.10;;
12367;SDS011;6248;49.812;6.620;2023-02-14T00:05:44;5.30;;;4.80;;
12367;SDS011;6248;49.812;6.620;2023-02-14T00:08:11;6.00;;;5.20;;
12367;SDS011;6248;49.812;6.620;2023-02-14T00:10:39;5.57;;;5.00;;
12367;SDS011;6248;49.812;6.620;2023-02-14T00:13:06;6.97;;;5.77;;
12367;SDS011;6248;49.812;6.620;2023-02-14T00:15:35;5.30;;;4.80;;
12367;SDS011;6248;49.812;6.620;2023-02-14T00:18:01;6.67;;;5.30;;
12367;SDS011;6248;49.812;6.620;2023-02-14T00:20:30;5.83;;;5.27;;
12367;SDS011;6248;49.812;6.620;2023-02-14T00:22:57;6.07;;;5.10;;
12367;SDS011;6248;49.812;6.620;2023-02-14T00:25:25;5.87;;;5.27;;
12367;SDS011;6248;49.812;6.620;2023-02-14T00:27:53;6.43;;;5.50;;
12367;SDS011;6248;49.812;6.620;2023-02-14T00:30:21;6.47;;;5.30;;
12367;SDS011;6248;49.812;6.620;2023-02-14T00:32:50;6.10;;;5.50;;
12367;SDS011;6248;49.812;6.620;2023-02-14T00:35:17;6.13;;;5.50;;
12367;SDS011;6248;49.812;6.620;2023-02-14T00:37:45;5.83;;;5.13;;
12367;SDS011;6248;49.812;6.620;2023-02-14T00:40:12;6.40;;;5.50;;
12367;SDS011;6248;49.812;6.620;2023-02-14T00:42:40;6.73;;;5.77;;
12367;SDS011;6248;49.812;6.620;2023-02-14T00:45:07;6.53;;;5.50;;
12367;SDS011;6248;49.812;6.620;2023-02-14T00:47:35;7.30;;;5.37;;
12367;SDS011;6248;49.812;6.620;2023-02-14T00:50:05;6.80;;;5.40;;
12367;SDS011;6248;49.812;6.620;2023-02-14T00:52:32;6.47;;;5.80;;
12367;SDS011;6248;49.812;6.620;2023-02-14T00:54:59;7.30;;;5.83;;
12367;SDS011;6248;49.812;6.620;2023-02-14T00:57:27;7.03;;;5.43;;
12367;SDS011;6248;49.812;6.620;2023-02-14T00:59:54;6.20;;;5.60;;
12367;SDS011;6248;49.812;6.620;2023-02-14T01:02:22;6.63;;;5.60;;
12367;SDS011;6248;49.812;6.620;2023-02-14T01:04:49;6.33;;;5.73;;
12367;SDS011;6248;49.812;6.620;2023-02-14T01:07:18;7.33;;;6.00;;
12367;SDS011;6248;49.812;6.620;2023-02-14T01:09:47;7.10;;;6.30;;
12367;SDS011;6248;49.812;6.620;2023-02-14T01:12:14;6.53;;;5.80;;
12367;SDS011;6248;49.812;6.620;2023-02-14T01:14:42;6.30;;;5.63;;
12367;SDS011;6248;49.812;6.620;2023-02-14T01:17:09;7.13;;;5.77;;
12367;SDS011;6248;49.812;6.620;2023-02-14T01:19:37;6.40;;;5.13;;
12367;SDS011;6248;49.812;6.620;2023-02-14T01:22:06;7.37;;;6.20;;
12367;SDS011;6248;49.812;6.620;2023-02-14T01:24:35;8.23;;;6.30;;
12367;SDS011;6248;49.812;6.620;2023-02-14T01:48:29;7.10;;;6.40;;
12367;SDS011;6248;49.812;6.620;2023-02-14T01:50:56;8.27;;;6.93;;
12367;SDS011;6248;49.812;6.620;2023-02-14T01:53:25;8.37;;;6.87;;
12367;SDS011;6248;49.812;6.620;2023-02-14T01:55:57;8.30;;;6.90;;
12367;SDS011;6248;49.812;6.620;2023-02-14T01:58:27;7.43;;;6.63;;
12367;SDS011;6248;49.812;6.620;2023-02-14T02:00:58;7.23;;;6.20;;
12367;SDS011;6248;49.812;6.620;2023-02-14T02:03:27;8.40;;;6.80;;
12367;SDS011;6248;49.812;6.620;2023-02-14T02:05:58;6.60;;;5.90;;
12367;SDS011;6248;49.812;6.620;2023-02-14T02:08:29;8.03;;;6.60;;
12367;SDS011;6248;49.812;6.620;2023-02-14T02:10:56;7.93;;;7.00;;
12367;SDS011;6248;49.812;6.620;2023-02-14T02:13:24;7.47;;;6.43;;
12367;SDS011;6248;49.812;6.620;2023-02-14T02:15:57;7.73;;;6.93;;
12367;SDS011;6248;49.812;6.620;2023-02-14T02:18:32;7.77;;;6.97;;
12367;SDS011;6248;49.812;6.620;2023-02-14T02:21:08;9.57;;;7.10;;
12367;SDS011;6248;49.812;6.620;2023-02-14T02:26:49;7.40;;;6.53;;
12367;SDS011;6248;49.812;6.620;2023-02-14T02:29:27;8.43;;;7.00;;
12367;SDS011;6248;49.812;6.620;2023-02-14T02:32:19;8.63;;;6.70;;
12367;SDS011;6248;49.812;6.620;2023-02-14T02:37:52;9.53;;;7.10;;
12367;SDS011;6248;49.812;6.620;2023-02-14T02:40:28;9.83;;;7.73;;
12367;SDS011;6248;49.812;6.620;2023-02-14T02:43:05;9.30;;;7.80;;
12367;SDS011;6248;49.812;6.620;2023-02-14T02:45:35;8.20;;;7.33;;
12367;SDS011;6248;49.812;6.620;2023-02-14T02:48:29;10.93;;;8.37;;
12367;SDS011;6248;49.812;6.620;2023-02-14T02:51:02;10.33;;;7.57;;
12367;SDS011;6248;49.812;6.620;2023-02-14T02:53:50;8.47;;;7.57;;
12367;SDS011;6248;49.812;6.620;2023-02-14T02:56:19;9.73;;;7.93;;
12367;SDS011;6248;49.812;6.620;2023-02-14T02:59:07;10.10;;;8.70;;
12367;SDS011;6248;49.812;6.620;2023-02-14T03:01:42;8.70;;;7.80;;
12367;SDS011;6248;49.812;6.620;2023-02-14T03:04:11;8.67;;;7.50;;
12367;SDS011;6248;49.812;6.620;2023-02-14T03:06:57;10.27;;;7.83;;
12367;SDS011;6248;49.812;6.620;2023-02-14T03:12:16;10.70;;;8.47;;
12367;SDS011;6248;49.812;6.620;2023-02-14T03:14:48;9.77;;;8.00;;
12367;SDS011;6248;49.812;6.620;2023-02-14T03:17:18;8.80;;;7.67;;
12367;SDS011;6248;49.812;6.620;2023-02-14T03:19:51;9.17;;;7.57;;
12367;SDS011;6248;49.812;6.620;2023-02-14T03:22:42;10.77;;;7.90;;
12367;SDS011;6248;49.812;6.620;2023-02-14T03:25:16;10.37;;;8.17;;
12367;SDS011;6248;49.812;6.620;2023-02-14T03:27:51;8.90;;;7.90;;
12367;SDS011;6248;49.812;6.620;2023-02-14T03:30:23;9.73;;;8.20;;
12367;SDS011;6248;49.812;6.620;2023-02-14T03:32:54;10.43;;;8.30;;
12367;SDS011;6248;49.812;6.620;2023-02-14T03:35:25;9.83;;;7.20;;
12367;SDS011;6248;49.812;6.620;2023-02-14T03:37:56;10.60;;;7.83;;
12367;SDS011;6248;49.812;6.620;2023-02-14T03:40:27;9.40;;;8.40;;
12367;SDS011;6248;49.812;6.620;2023-02-14T03:42:59;9.67;;;8.10;;
12367;SDS011;6248;49.812;6.620;2023-02-14T03:45:29;9.50;;;8.03;;
12367;SDS011;6248;49.812;6.620;2023-02-14T03:47:59;10.17;;;7.83;;
12367;SDS011;6248;49.812;6.620;2023-02-14T03:50:28;8.87;;;7.70;;
12367;SDS011;6248;49.812;6.620;2023-02-14T03:52:57;9.40;;;8.30;;
12367;SDS011;6248;49.812;6.620;2023-02-14T03:55:25;10.30;;;8.90;;
12367;SDS011;6248;49.812;6.620;2023-02-14T03:57:54;10.00;;;8.47;;
12367;SDS011;6248;49.812;6.620;2023-02-14T04:00:25;11.20;;;8.77;;
12367;SDS011;6248;49.812;6.620;2023-02-14T04:02:54;9.57;;;8.40;;
12367;SDS011;6248;49.812;6.620;2023-02-14T04:05:25;11.27;;;8.50;;
12367;SDS011;6248;49.812;6.620;2023-02-14T04:07:54;10.83;;;8.50;;
12367;SDS011;6248;49.812;6.620;2023-02-14T04:10:22;9.70;;;8.23;;
12367;SDS011;6248;49.812;6.620;2023-02-14T04:12:50;11.00;;;9.33;;
12367;SDS011;6248;49.812;6.620;2023-02-14T04:15:18;11.20;;;8.70;;
12367;SDS011;6248;49.812;6.620;2023-02-14T04:17:47;9.83;;;8.60;;
12367;SDS011;6248;49.812;6.620;2023-02-14T04:20:32;10.20;;;8.47;;
12367;SDS011;6248;49.812;6.620;2023-02-14T04:23:01;9.63;;;8.07;;
12367;SDS011;6248;49.812;6.620;2023-02-14T04:25:28;11.03;;;8.30;;
12367;SDS011;6248;49.812;6.620;2023-02-14T04:27:56;11.73;;;9.23;;
12367;SDS011;6248;49.812;6.620;2023-02-14T04:30:23;9.93;;;8.47;;
12367;SDS011;6248;49.812;6.620;2023-02-14T04:32:52;12.80;;;9.20;;
12367;SDS011;6248;49.812;6.620;2023-02-14T04:35:19;11.60;;;9.00;;
12367;SDS011;6248;49.812;6.620;2023-02-14T04:37:47;10.47;;;8.83;;
12367;SDS011;6248;49.812;6.620;2023-02-14T04:40:14;9.30;;;8.30;;
12367;SDS011;6248;49.812;6.620;2023-02-14T04:42:42;9.87;;;8.70;;
12367;SDS011;6248;49.812;6.620;2023-02-14T04:45:09;10.80;;;9.00;;
12367;SDS011;6248;49.812;6.620;2023-02-14T04:47:37;10.53;;;9.10;;
12367;SDS011;6248;49.812;6.620;2023-02-14T04:50:07;11.03;;;9.23;;
12367;SDS011;6248;49.812;6.620;2023-02-14T04:52:34;14.77;;;10.23;;
12367;SDS011;6248;49.812;6.620;2023-02-14T04:55:02;11.83;;;9.73;;
12367;SDS011;6248;49.812;6.620;2023-02-14T04:57:30;14.67;;;10.20;;
12367;SDS011;6248;49.812;6.620;2023-02-14T04:59:57;14.90;;;10.47;;
12367;SDS011;6248;49.812;6.620;2023-02-14T05:02:25;15.90;;;12.00;;
12367;SDS011;6248;49.812;6.620;2023-02-14T05:04:52;18.30;;;13.17;;
12367;SDS011;6248;49.812;6.620;2023-02-14T05:07:21;23.90;;;13.03;;
12367;SDS011;6248;49.812;6.620;2023-02-14T05:09:48;16.67;;;12.57;;
12367;SDS011;6248;49.812;6.620;2023-02-14T05:12:16;16.37;;;12.13;;
12367;SDS011;6248;49.812;6.620;2023-02-14T05:14:43;15.47;;;11.50;;
12367;SDS011;6248;49.812;6.620;2023-02-14T05:17:11;16.63;;;12.23;;
12367;SDS011;6248;49.812;6.620;2023-02-14T05:19:38;16.30;;;12.50;;
12367;SDS011;6248;49.812;6.620;2023-02-14T05:22:06;30.53;;;13.60;;
12367;SDS011;6248;49.812;6.620;2023-02-14T05:24:35;25.20;;;12.00;;
12367;SDS011;6248;49.812;6.620;2023-02-14T05:27:02;18.67;;;12.27;;
12367;SDS011;6248;49.812;6.620;2023-02-14T05:29:30;19.97;;;12.13;;
12367;SDS011;6248;49.812;6.620;2023-02-14T05:31:57;88.37;;;14.07;;
12367;SDS011;6248;49.812;6.620;2023-02-14T05:34:25;36.77;;;11.57;;
12367;SDS011;6248;49.812;6.620;2023-02-14T05:36:53;17.03;;;11.17;;
12367;SDS011;6248;49.812;6.620;2023-02-14T05:39:21;31.97;;;12.03;;
12367;SDS011;6248;49.812;6.620;2023-02-14T05:41:50;20.33;;;10.57;;
12367;SDS011;6248;49.812;6.620;2023-02-14T05:44:18;19.50;;;10.70;;
12367;SDS011;6248;49.812;6.620;2023-02-14T05:46:45;33.83;;;11.63;;
12367;SDS011;6248;49.812;6.620;2023-02-14T05:49:12;35.33;;;11.00;;
12367;SDS011;6248;49.812;6.620;2023-02-14T05:51:40;19.10;;;9.73;;
12367;SDS011;6248;49.812;6.620;2023-02-14T05:54:07;17.87;;;9.60;;
12367;SDS011;6248;49.812;6.620;2023-02-14T05:56:35;15.00;;;9.83;;
12367;SDS011;6248;49.812;6.620;2023-02-14T05:59:04;14.53;;;10.17;;
12367;SDS011;6248;49.812;6.620;2023-02-14T06:01:32;11.03;;;9.77;;
12367;SDS011;6248;49.812;6.620;2023-02-14T06:03:59;10.00;;;8.67;;
12367;SDS011;6248;49.812;6.620;2023-02-14T06:06:27;11.37;;;9.90;;
12367;SDS011;6248;49.812;6.620;2023-02-14T06:08:54;22.00;;;10.67;;
12367;SDS011;6248;49.812;6.620;2023-02-14T06:11:21;16.23;;;9.97;;
12367;SDS011;6248;49.812;6.620;2023-02-14T06:13:49;17.10;;;9.70;;
12367;SDS011;6248;49.812;6.620;2023-02-14T06:16:18;12.50;;;9.93;;
12367;SDS011;6248;49.812;6.620;2023-02-14T06:18:45;14.93;;;10.53;;
12367;SDS011;6248;49.812;6.620;2023-02-14T06:21:13;12.33;;;10.07;;
12367;SDS011;6248;49.812;6.620;2023-02-14T06:23:41;15.00;;;9.83;;
12367;SDS011;6248;49.812;6.620;2023-02-14T06:26:08;16.30;;;10.63;;
12367;SDS011;6248;49.812;6.620;2023-02-14T06:28:36;15.30;;;10.80;;
12367;SDS011;6248;49.812;6.620;2023-02-14T06:31:04;16.23;;;11.07;;
12367;SDS011;6248;49.812;6.620;2023-02-14T06:33:34;24.77;;;14.70;;
12367;SDS011;6248;49.812;6.620;2023-02-14T06:36:01;40.10;;;24.17;;
12367;SDS011;6248;49.812;6.620;2023-02-14T06:38:29;37.83;;;22.50;;
12367;SDS011;6248;49.812;6.620;2023-02-14T06:41:01;21.87;;;14.80;;
12367;SDS011;6248;49.812;6.620;2023-02-14T06:43:28;18.10;;;13.07;;
12367;SDS011;6248;49.812;6.620;2023-02-14T06:45:56;16.93;;;12.30;;
12367;SDS011;6248;49.812;6.620;2023-02-14T06:48:24;15.80;;;12.03;;
12367;SDS011;6248;49.812;6.620;2023-02-14T06:50:53;16.80;;;12.67;;
12367;SDS011;6248;49.812;6.620;2023-02-14T06:53:21;17.13;;;12.00;;
12367;SDS011;6248;49.812;6.620;2023-02-14T06:55:48;17.50;;;12.07;;
12367;SDS011;6248;49.812;6.620;2023-02-14T06:58:16;29.57;;;13.67;;
12367;SDS011;6248;49.812;6.620;2023-02-14T07:00:43;51.43;;;12.40;;
12367;SDS011;6248;49.812;6.620;2023-02-14T07:03:11;47.53;;;13.00;;
12367;SDS011;6248;49.812;6.620;2023-02-14T07:05:38;67.83;;;13.67;;
12367;SDS011;6248;49.812;6.620;2023-02-14T07:08:07;42.50;;;12.83;;
12367;SDS011;6248;49.812;6.620;2023-02-14T07:10:35;35.13;;;14.17;;
12367;SDS011;6248;49.812;6.620;2023-02-14T07:13:03;45.90;;;16.83;;
12367;SDS011;6248;49.812;6.620;2023-02-14T07:15:31;91.63;;;21.00;;
12367;SDS011;6248;49.812;6.620;2023-02-14T07:18:00;62.97;;;19.63;;
12367;SDS011;6248;49.812;6.620;2023-02-14T07:20:28;69.53;;;19.17;;
12367;SDS011;6248;49.812;6.620;2023-02-14T07:22:56;49.53;;;18.83;;
12367;SDS011;6248;49.812;6.620;2023-02-14T07:25:25;59.57;;;16.70;;
12367;SDS011;6248;49.812;6.620;2023-02-14T07:27:54;35.37;;;15.37;;
12367;SDS011;6248;49.812;6.620;2023-02-14T07:30:22;39.17;;;14.40;;
12367;SDS011;6248;49.812;6.620;2023-02-14T07:32:50;29.30;;;14.73;;
12367;SDS011;6248;49.812;6.620;2023-02-14T07:35:18;28.30;;;14.57;;
12367;SDS011;6248;49.812;6.620;2023-02-14T07:37:47;23.63;;;13.13;;
12367;SDS011;6248;49.812;6.620;2023-02-14T07:40:16;24.37;;;14.77;;
12367;SDS011;6248;49.812;6.620;2023-02-14T07:42:47;35.20;;;15.70;;
12367;SDS011;6248;49.812;6.620;2023-02-14T07:45:18;30.10;;;13.70;;
12367;SDS011;6248;49.812;6.620;2023-02-14T07:47:46;25.60;;;13.50;;
12367;SDS011;6248;49.812;6.620;2023-02-14T07:50:15;50.17;;;14.53;;
12367;SDS011;6248;49.812;6.620;2023-02-14T07:52:44;60.77;;;14.00;;
12367;SDS011;6248;49.812;6.620;2023-02-14T07:55:12;48.80;;;13.90;;
12367;SDS011;6248;49.812;6.620;2023-02-14T07:57:40;62.63;;;14.50;;
12367;SDS011;6248;49.812;6.620;2023-02-14T08:00:11;33.57;;;12.37;;
12367;SDS011;6248;49.812;6.620;2023-02-14T08:02:39;33.73;;;12.97;;
12367;SDS011;6248;49.812;6.620;2023-02-14T08:05:07;29.10;;;12.53;;
12367;SDS011;6248;49.812;6.620;2023-02-14T08:07:34;22.40;;;12.97;;
12367;SDS011;6248;49.812;6.620;2023-02-14T08:10:02;17.13;;;11.87;;
12367;SDS011;6248;49.812;6.620;2023-02-14T08:12:30;29.03;;;12.20;;
12367;SDS011;6248;49.812;6.620;2023-02-14T08:15:17;19.77;;;12.87;;
12367;SDS011;6248;49.812;6.620;2023-02-14T08:18:03;26.30;;;12.27;;
12367;SDS011;6248;49.812;6.620;2023-02-14T08:20:30;13.60;;;10.60;;
12367;SDS011;6248;49.812;6.620;2023-02-14T08:22:58;12.17;;;10.77;;
12367;SDS011;6248;49.812;6.620;2023-02-14T08:25:25;15.87;;;11.50;;
12367;SDS011;6248;49.812;6.620;2023-02-14T08:27:53;12.20;;;10.67;;
12367;SDS011;6248;49.812;6.620;2023-02-14T08:30:22;14.63;;;11.53;;
12367;SDS011;6248;49.812;6.620;2023-02-14T08:32:50;15.40;;;10.90;;
12367;SDS011;6248;49.812;6.620;2023-02-14T08:35:17;13.73;;;10.47;;
12367;SDS011;6248;49.812;6.620;2023-02-14T08:37:45;12.97;;;10.10;;
12367;SDS011;6248;49.812;6.620;2023-02-14T08:40:12;13.47;;;10.17;;
12367;SDS011;6248;49.812;6.620;2023-02-14T08:42:40;14.30;;;10.53;;
12367;SDS011;6248;49.812;6.620;2023-02-14T08:45:08;17.30;;;12.80;;
12367;SDS011;6248;49.812;6.620;2023-02-14T08:47:37;14.67;;;11.80;;
12367;SDS011;6248;49.812;6.620;2023-02-14T08:50:05;14.67;;;10.87;;
12367;SDS011;6248;49.812;6.620;2023-02-14T08:52:32;13.17;;;11.13;;
12367;SDS011;6248;49.812;6.620;2023-02-14T08:55:00;16.10;;;12.43;;
12367;SDS011;6248;49.812;6.620;2023-02-14T08:57:29;15.43;;;12.33;;
12367;SDS011;6248;49.812;6.620;2023-02-14T08:59:56;14.23;;;11.33;;
12367;SDS011;6248;49.812;6.620;2023-02-14T09:02:24;13.70;;;10.63;;
12367;SDS011;6248;49.812;6.620;2023-02-14T09:04:53;15.17;;;11.73;;
12367;SDS011;6248;49.812;6.620;2023-02-14T09:07:21;12.03;;;10.50;;
12367;SDS011;6248;49.812;6.620;2023-02-14T09:09:50;14.30;;;10.97;;
12367;SDS011;6248;49.812;6.620;2023-02-14T09:12:18;13.70;;;10.97;;
12367;SDS011;6248;49.812;6.620;2023-02-14T09:14:46;13.30;;;11.40;;
12367;SDS011;6248;49.812;6.620;2023-02-14T09:17:14;14.63;;;11.73;;
12367;SDS011;6248;49.812;6.620;2023-02-14T09:19:42;14.90;;;11.37;;
12367;SDS011;6248;49.812;6.620;2023-02-14T09:22:12;13.97;;;11.60;;
12367;SDS011;6248;49.812;6.620;2023-02-14T09:24:39;15.23;;;12.40;;
12367;SDS011;6248;49.812;6.620;2023-02-14T09:27:07;16.97;;;13.77;;
12367;SDS011;6248;49.812;6.620;2023-02-14T09:29:35;17.23;;;13.67;;
12367;SDS011;6248;49.812;6.620;2023-02-14T09:32:03;18.03;;;14.27;;
12367;SDS011;6248;49.812;6.620;2023-02-14T09:34:31;17.70;;;14.00;;
12367;SDS011;6248;49.812;6.620;2023-02-14T09:37:00;11.90;;;10.60;;
12367;SDS011;6248;49.812;6.620;2023-02-14T09:39:41;10.97;;;9.87;;
12367;SDS011;6248;49.812;6.620;2023-02-14T09:44:56;11.83;;;9.60;;
12367;SDS011;6248;49.812;6.620;2023-02-14T09:47:29;12.53;;;10.00;;
12367;SDS011;6248;49.812;6.620;2023-02-14T09:50:00;11.00;;;9.90;;
12367;SDS011;6248;49.812;6.620;2023-02-14T09:52:29;13.27;;;9.77;;
12367;SDS011;6248;49.812;6.620;2023-02-14T09:54:59;11.60;;;10.40;;
12367;SDS011;6248;49.812;6.620;2023-02-14T09:57:30;11.63;;;10.00;;
12367;SDS011;6248;49.812;6.620;2023-02-14T10:00:02;11.20;;;9.93;;
12367;SDS011;6248;49.812;6.620;2023-02-14T10:02:38;11.27;;;9.93;;
12367;SDS011;6248;49.812;6.620;2023-02-14T10:05:09;11.90;;;10.10;;
12367;SDS011;6248;49.812;6.620;2023-02-14T10:07:40;12.67;;;10.43;;
12367;SDS011;6248;49.812;6.620;2023-02-14T10:10:12;12.70;;;10.80;;
12367;SDS011;6248;49.812;6.620;2023-02-14T10:12:41;16.23;;;12.27;;
12367;SDS011;6248;49.812;6.620;2023-02-14T10:15:11;16.93;;;11.80;;
12367;SDS011;6248;49.812;6.620;2023-02-14T10:17:41;17.30;;;12.50;;
12367;SDS011;6248;49.812;6.620;2023-02-14T10:20:19;15.67;;;10.73;;
12367;SDS011;6248;49.812;6.620;2023-02-14T10:22:49;11.87;;;9.57;;
12367;SDS011;6248;49.812;6.620;2023-02-14T10:25:21;9.77;;;8.67;;
12367;SDS011;6248;49.812;6.620;2023-02-14T10:27:50;8.80;;;7.90;;
12367;SDS011;6248;49.812;6.620;2023-02-14T10:30:20;9.07;;;8.10;;
12367;SDS011;6248;49.812;6.620;2023-02-14T10:32:48;8.90;;;8.00;;
12367;SDS011;6248;49.812;6.620;2023-02-14T10:35:20;9.63;;;8.30;;
12367;SDS011;6248;49.812;6.620;2023-02-14T10:37:52;8.80;;;7.87;;
12367;SDS011;6248;49.812;6.620;2023-02-14T10:43:08;9.53;;;7.80;;
12367;SDS011;6248;49.812;6.620;2023-02-14T10:45:40;9.13;;;7.77;;
12367;SDS011;6248;49.812;6.620;2023-02-14T10:48:13;9.57;;;8.43;;
12367;SDS011;6248;49.812;6.620;2023-02-14T10:50:46;8.53;;;7.73;;
12367;SDS011;6248;49.812;6.620;2023-02-14T10:53:17;9.23;;;7.90;;
12367;SDS011;6248;49.812;6.620;2023-02-14T10:55:48;9.20;;;7.93;;
12367;SDS011;6248;49.812;6.620;2023-02-14T10:58:21;9.57;;;8.67;;
12367;SDS011;6248;49.812;6.620;2023-02-14T11:00:51;8.93;;;8.00;;
12367;SDS011;6248;49.812;6.620;2023-02-14T11:03:20;9.03;;;8.10;;
12367;SDS011;6248;49.812;6.620;2023-02-14T11:05:49;9.07;;;8.17;;
12367;SDS011;6248;49.812;6.620;2023-02-14T11:08:19;8.83;;;7.90;;
12367;SDS011;6248;49.812;6.620;2023-02-14T11:10:48;8.00;;;7.20;;
12367;SDS011;6248;49.812;6.620;2023-02-14T11:13:27;7.60;;;6.90;;
12367;SDS011;6248;49.812;6.620;2023-02-14T11:15:57;9.07;;;8.17;;
12367;SDS011;6248;49.812;6.620;2023-02-14T11:18:25;9.00;;;8.10;;
12367;SDS011;6248;49.812;6.620;2023-02-14T11:21:00;8.53;;;7.73;;
12367;SDS011;6248;49.812;6.620;2023-02-14T11:23:31;8.97;;;8.07;;
12367;SDS011;6248;49.812;6.620;2023-02-14T11:25:59;9.13;;;8.13;;
12367;SDS011;6248;49.812;6.620;2023-02-14T11:28:29;9.17;;;8.27;;
12367;SDS011;6248;49.812;6.620;2023-02-14T11:30:56;9.50;;;8.07;;
12367;SDS011;6248;49.812;6.620;2023-02-14T11:33:29;9.40;;;8.47;;
12367;SDS011;6248;49.812;6.620;2023-02-14T11:35:59;8.87;;;8.00;;
12367;SDS011;6248;49.812;6.620;2023-02-14T11:38:27;9.13;;;8.23;;
12367;SDS011;6248;49.812;6.620;2023-02-14T11:40:56;10.40;;;9.40;;
12367;SDS011;6248;49.812;6.620;2023-02-14T11:43:30;9.93;;;8.97;;
12367;SDS011;6248;49.812;6.620;2023-02-14T11:46:05;8.53;;;7.70;;
12367;SDS011;6248;49.812;6.620;2023-02-14T11:48:32;9.13;;;8.23;;
12367;SDS011;6248;49.812;6.620;2023-02-14T11:51:00;9.77;;;8.50;;
12367;SDS011;6248;49.812;6.620;2023-02-14T11:53:32;8.93;;;7.33;;
12367;SDS011;6248;49.812;6.620;2023-02-14T11:56:04;7.53;;;6.83;;
12367;SDS011;6248;49.812;6.620;2023-02-14T11:58:34;7.93;;;7.23;;
12367;SDS011;6248;49.812;6.620;2023-02-14T12:01:03;8.30;;;7.50;;
12367;SDS011;6248;49.812;6.620;2023-02-14T12:03:36;8.23;;;7.53;;
12367;SDS011;6248;49.812;6.620;2023-02-14T12:06:04;8.70;;;7.90;;
12367;SDS011;6248;49.812;6.620;2023-02-14T12:08:32;8.70;;;7.83;;
12367;SDS011;6248;49.812;6.620;2023-02-14T12:11:03;8.90;;;8.10;;
12367;SDS011;6248;49.812;6.620;2023-02-14T12:13:31;8.43;;;7.63;;
12367;SDS011;6248;49.812;6.620;2023-02-14T12:16:01;8.67;;;7.87;;
12367;SDS011;6248;49.812;6.620;2023-02-14T12:24:02;9.20;;;8.30;;
12367;SDS011;6248;49.812;6.620;2023-02-14T12:26:32;9.27;;;8.37;;
12367;SDS011;6248;49.812;6.620;2023-02-14T12:29:03;8.47;;;7.67;;
12367;SDS011;6248;49.812;6.620;2023-02-14T12:31:34;9.57;;;8.68;;
12367;SDS011;6248;49.812;6.620;2023-02-14T12:34:01;9.00;;;8.10;;
12367;SDS011;6248;49.812;6.620;2023-02-14T12:36:32;9.20;;;8.30;;
12367;SDS011;6248;49.812;6.620;2023-02-14T12:39:07;9.48;;;8.15;;
12367;SDS011;6248;49.812;6.620;2023-02-14T12:41:39;9.57;;;8.57;;
12367;SDS011;6248;49.812;6.620;2023-02-14T12:44:12;9.93;;;8.93;;
12367;SDS011;6248;49.812;6.620;2023-02-14T12:49:41;9.93;;;8.87;;
12367;SDS011;6248;49.812;6.620;2023-02-14T12:52:18;9.50;;;8.50;;
12367;SDS011;6248;49.812;6.620;2023-02-14T12:54:54;9.30;;;7.80;;
12367;SDS011;6248;49.812;6.620;2023-02-14T12:57:28;9.43;;;8.43;;
12367;SDS011;6248;49.812;6.620;2023-02-14T13:00:00;9.13;;;8.23;;
12367;SDS011;6248;49.812;6.620;2023-02-14T13:02:44;11.65;;;8.60;;
12367;SDS011;6248;49.812;6.620;2023-02-14T13:05:19;9.10;;;8.30;;
12367;SDS011;6248;49.812;6.620;2023-02-14T13:08:01;9.70;;;8.05;;
12367;SDS011;6248;49.812;6.620;2023-02-14T13:10:38;7.82;;;7.07;;
12367;SDS011;6248;49.812;6.620;2023-02-14T13:13:13;8.70;;;7.80;;
12367;SDS011;6248;49.812;6.620;2023-02-14T13:15:44;8.00;;;7.20;;
12367;SDS011;6248;49.812;6.620;2023-02-14T13:18:16;9.37;;;8.40;;
12367;SDS011;6248;49.812;6.620;2023-02-14T13:20:48;11.77;;;7.90;;
12367;SDS011;6248;49.812;6.620;2023-02-14T13:23:19;8.57;;;7.63;;
12367;SDS011;6248;49.812;6.620;2023-02-14T13:25:49;8.70;;;7.90;;
12367;SDS011;6248;49.812;6.620;2023-02-14T13:28:18;10.20;;;7.70;;
12367;SDS011;6248;49.812;6.620;2023-02-14T13:30:46;8.48;;;7.68;;
12367;SDS011;6248;49.812;6.620;2023-02-14T13:33:20;9.40;;;8.40;;
12367;SDS011;6248;49.812;6.620;2023-02-14T13:35:51;9.27;;;8.38;;
12367;SDS011;6248;49.812;6.620;2023-02-14T13:38:20;8.97;;;8.07;;
12367;SDS011;6248;49.812;6.620;2023-02-14T13:40:47;10.13;;;8.03;;
12367;SDS011;6248;49.812;6.620;2023-02-14T13:45:58;9.10;;;8.20;;
12367;SDS011;6248;49.812;6.620;2023-02-14T13:48:27;9.10;;;8.20;;
12367;SDS011;6248;49.812;6.620;2023-02-14T13:50:58;10.03;;;8.37;;
12367;SDS011;6248;49.812;6.620;2023-02-14T13:53:30;10.10;;;7.83;;
12367;SDS011;6248;49.812;6.620;2023-02-14T13:56:00;13.27;;;8.43;;
12367;SDS011;6248;49.812;6.620;2023-02-14T13:58:34;9.70;;;8.70;;
12367;SDS011;6248;49.812;6.620;2023-02-14T14:03:52;10.40;;;9.30;;
12367;SDS011;6248;49.812;6.620;2023-02-14T14:06:22;11.83;;;9.03;;
12367;SDS011;6248;49.812;6.620;2023-02-14T14:08:50;10.43;;;9.38;;
12367;SDS011;6248;49.812;6.620;2023-02-14T14:16:55;10.63;;;9.52;;
12367;SDS011;6248;49.812;6.620;2023-02-14T14:19:34;8.80;;;7.90;;
12367;SDS011;6248;49.812;6.620;2023-02-14T14:22:06;9.40;;;8.50;;
12367;SDS011;6248;49.812;6.620;2023-02-14T14:24:34;9.30;;;8.40;;
12367;SDS011;6248;49.812;6.620;2023-02-14T14:27:02;9.88;;;8.85;;
12367;SDS011;6248;49.812;6.620;2023-02-14T14:29:31;10.47;;;9.30;;
12367;SDS011;6248;49.812;6.620;2023-02-14T14:32:06;10.48;;;9.18;;
12367;SDS011;6248;49.812;6.620;2023-02-14T14:34:34;9.73;;;8.70;;
12367;SDS011;6248;49.812;6.620;2023-02-14T14:37:02;13.83;;;10.57;;
12367;SDS011;6248;49.812;6.620;2023-02-14T14:39:33;10.13;;;9.03;;
12367;SDS011;6248;49.812;6.620;2023-02-14T14:42:04;11.70;;;9.10;;
12367;SDS011;6248;49.812;6.620;2023-02-14T14:44:33;8.63;;;7.72;;
12367;SDS011;6248;49.812;6.620;2023-02-14T14:47:00;9.60;;;8.60;;
12367;SDS011;6248;49.812;6.620;2023-02-14T14:49:28;9.20;;;8.30;;
12367;SDS011;6248;49.812;6.620;2023-02-14T14:51:58;11.80;;;9.30;;
12367;SDS011;6248;49.812;6.620;2023-02-14T14:54:25;9.47;;;8.57;;
12367;SDS011;6248;49.812;6.620;2023-02-14T14:56:58;11.20;;;8.57;;
12367;SDS011;6248;49.812;6.620;2023-02-14T14:59:27;11.67;;;8.97;;
12367;SDS011;6248;49.812;6.620;2023-02-14T15:01:55;9.50;;;8.57;;
12367;SDS011;6248;49.812;6.620;2023-02-14T15:04:27;9.50;;;8.60;;
12367;SDS011;6248;49.812;6.620;2023-02-14T15:06:55;9.87;;;8.87;;
12367;SDS011;6248;49.812;6.620;2023-02-14T15:09:28;10.37;;;8.47;;
12367;SDS011;6248;49.812;6.620;2023-02-14T15:11:59;9.57;;;8.57;;
12367;SDS011;6248;49.812;6.620;2023-02-14T15:14:44;9.63;;;8.60;;
12367;SDS011;6248;49.812;6.620;2023-02-14T15:17:17;8.93;;;8.03;;
12367;SDS011;6248;49.812;6.620;2023-02-14T15:19:45;10.10;;;8.30;;
12367;SDS011;6248;49.812;6.620;2023-02-14T15:22:17;10.07;;;8.53;;
12367;SDS011;6248;49.812;6.620;2023-02-14T15:24:45;11.77;;;8.83;;
12367;SDS011;6248;49.812;6.620;2023-02-14T15:27:15;10.47;;;8.80;;
12367;SDS011;6248;49.812;6.620;2023-02-14T15:29:51;9.67;;;8.67;;
12367;SDS011;6248;49.812;6.620;2023-02-14T15:32:19;12.80;;;9.90;;
12367;SDS011;6248;49.812;6.620;2023-02-14T15:34:47;11.37;;;10.17;;
12367;SDS011;6248;49.812;6.620;2023-02-14T15:37:14;10.47;;;8.87;;
12367;SDS011;6248;49.812;6.620;2023-02-14T15:39:45;11.87;;;9.03;;
12367;SDS011;6248;49.812;6.620;2023-02-14T15:42:19;10.63;;;8.83;;
12367;SDS011;6248;49.812;6.620;2023-02-14T15:44:50;9.10;;;8.20;;
12367;SDS011;6248;49.812;6.620;2023-02-14T15:47:17;14.07;;;10.93;;
12367;SDS011;6248;49.812;6.620;2023-02-14T15:49:46;14.50;;;13.00;;
12367;SDS011;6248;49.812;6.620;2023-02-14T15:52:13;15.03;;;12.87;;
12367;SDS011;6248;49.812;6.620;2023-02-14T15:54:41;13.30;;;11.90;;
12367;SDS011;6248;49.812;6.620;2023-02-14T15:57:16;12.57;;;11.27;;
12367;SDS011;6248;49.812;6.620;2023-02-14T15:59:46;11.47;;;9.47;;
12367;SDS011;6248;49.812;6.620;2023-02-14T16:02:27;8.87;;;7.97;;